Time;durP1;ratioP1;P1;durP2;ratioP2;P2;SDS_P1;SDS_P2;PMS_P1;PMS_P2;Temp;Humidity;BMP_temperature;BMP_pressure;BME280_temperature;BME280_humidity;BME280_pressure;Samples;Min_cycle;Max_cycle;Signal;HPM_P1;HPM_P2
2024/03/20 00:00:10;;;;;;;3.17;1.20;;;;;;;;;;5024165;28;58489;-72
2024/03/20 00:02:36;;;;;;;3.38;1.10;;;;;;;;;;5024185;28;58016;-72
2024/03/20 00:05:01;;;;;;;3.22;0.93;;;;;;;;;;5025674;28;60512;-75
2024/03/20 00:07:26;;;;;;;1.10;1.00;;;;;;;;;;5022965;28;58469;-73
2024/03/20 00:09:51;;;;;;;1.20;1.03;;;;;;;;;;5026080;28;58437;-72
2024/03/20 00:12:17;;;;;;;1.37;1.27;;;;;;;;;;5025085;28;59404;-77
2024/03/20 00:14:42;;;;;;;1.23;1.13;;;;;;;;;;5023220;28;58767;-74
2024/03/20 00:17:07;;;;;;;1.77;1.00;;;;;;;;;;5026038;28;58449;-74
2024/03/20 00:19:33;;;;;;;5.88;1.02;;;;;;;;;;5024428;28;59003;-73
2024/03/20 00:21:58;;;;;;;1.25;0.95;;;;;;;;;;5022635;28;58594;-73
2024/03/20 00:24:23;;;;;;;4.03;1.77;;;;;;;;;;5025512;28;59230;-73
2024/03/20 00:26:48;;;;;;;6.87;2.83;;;;;;;;;;5024851;28;58738;-73
2024/03/20 00:29:15;;;;;;;2.17;1.52;;;;;;;;;;5025638;28;58516;-74
2024/03/20 00:31:41;;;;;;;3.13;2.07;;;;;;;;;;5027782;28;59634;-72
2024/03/20 00:34:06;;;;;;;2.28;1.75;;;;;;;;;;5029322;28;58460;-74
2024/03/20 00:36:31;;;;;;;3.20;2.35;;;;;;;;;;5028133;28;58463;-74
2024/03/20 00:38:56;;;;;;;2.22;1.67;;;;;;;;;;5029011;28;58350;-73
2024/03/20 00:41:21;;;;;;;2.08;1.63;;;;;;;;;;5026743;28;58482;-67
2024/03/20 00:43:46;;;;;;;2.23;1.30;;;;;;;;;;5029595;28;58446;-67
2024/03/20 00:46:11;;;;;;;1.75;1.50;;;;;;;;;;5030382;28;58477;-66
2024/03/20 00:48:37;;;;;;;6.28;1.73;;;;;;;;;;5027454;28;58404;-67
2024/03/20 00:51:02;;;;;;;1.73;1.47;;;;;;;;;;5035148;28;59237;-67
2024/03/20 00:53:27;;;;;;;2.10;1.40;;;;;;;;;;5035688;28;58831;-67
2024/03/20 00:55:52;;;;;;;1.38;1.27;;;;;;;;;;5034520;28;58444;-66
2024/03/20 00:58:17;;;;;;;3.35;1.33;;;;;;;;;;5028075;28;59128;-68
2024/03/20 01:00:44;;;;;;;1.93;1.50;;;;;;;;;;5031109;28;58784;-67
2024/03/20 01:03:09;;;;;;;1.33;1.23;;;;;;;;;;5029825;28;60354;-67
2024/03/20 01:05:34;;;;;;;3.83;1.50;;;;;;;;;;5025903;28;59099;-67
2024/03/20 01:07:59;;;;;;;3.17;1.25;;;;;;;;;;5027767;28;58520;-67
2024/03/20 01:10:25;;;;;;;1.25;1.15;;;;;;;;;;5025828;28;59495;-67
2024/03/20 01:12:51;;;;;;;1.27;1.10;;;;;;;;;;5035584;28;59856;-67
2024/03/20 01:15:16;;;;;;;1.30;1.20;;;;;;;;;;5036141;28;58828;-67
2024/03/20 01:17:41;;;;;;;2.30;1.30;;;;;;;;;;5036679;28;60684;-67
2024/03/20 01:20:07;;;;;;;3.83;2.63;;;;;;;;;;5030877;28;58505;-67
2024/03/20 01:22:36;;;;;;;1.35;1.27;;;;;;;;;;5026413;28;58569;-67
2024/03/20 01:25:05;;;;;;;1.50;1.40;;;;;;;;;;5025358;28;59786;-67
2024/03/20 01:27:30;;;;;;;2.13;1.25;;;;;;;;;;5035219;28;58632;-67
2024/03/20 01:29:55;;;;;;;1.07;0.80;;;;;;;;;;5028116;28;59435;-68
2024/03/20 01:32:20;;;;;;;1.20;1.10;;;;;;;;;;5024210;28;58531;-67
2024/03/20 01:34:46;;;;;;;0.70;0.70;;;;;;;;;;5025418;28;58566;-67
2024/03/20 01:37:11;;;;;;;1.20;1.10;;;;;;;;;;5026820;28;58667;-67
2024/03/20 01:39:36;;;;;;;1.45;1.00;;;;;;;;;;5035110;28;58513;-67
2024/03/20 01:42:01;;;;;;;1.30;1.20;;;;;;;;;;5036434;28;58521;-67
2024/03/20 01:44:26;;;;;;;1.03;0.87;;;;;;;;;;5031078;28;58362;-67
2024/03/20 01:46:52;;;;;;;1.17;1.07;;;;;;;;;;5029219;28;58507;-67
2024/03/20 01:49:17;;;;;;;1.00;1.00;;;;;;;;;;5033081;28;59243;-67
2024/03/20 01:51:42;;;;;;;1.02;0.95;;;;;;;;;;5031965;28;59217;-67
2024/03/20 01:54:08;;;;;;;2.77;1.47;;;;;;;;;;5029712;28;58319;-68
2024/03/20 01:56:33;;;;;;;0.98;0.93;;;;;;;;;;5030604;28;59431;-68
2024/03/20 01:58:58;;;;;;;1.00;1.00;;;;;;;;;;5032350;28;58991;-68
2024/03/20 02:01:24;;;;;;;0.90;0.90;;;;;;;;;;5024923;28;58362;-69
2024/03/20 02:03:49;;;;;;;1.30;1.20;;;;;;;;;;5027470;28;58448;-69
2024/03/20 02:06:25;;;;;;;1.67;0.80;;;;;;;;;;5027681;28;58521;-69
2024/03/20 02:08:50;;;;;;;0.80;0.80;;;;;;;;;;5027984;28;59484;-69
2024/03/20 02:11:16;;;;;;;2.10;1.08;;;;;;;;;;5027572;28;58995;-69
2024/03/20 02:13:45;;;;;;;0.80;0.80;;;;;;;;;;5026899;28;58573;-68
2024/03/20 02:16:11;;;;;;;1.33;0.90;;;;;;;;;;5025459;28;60412;-68
2024/03/20 02:18:36;;;;;;;2.30;1.25;;;;;;;;;;5025896;28;59004;-68
2024/03/20 02:21:08;;;;;;;0.73;0.60;;;;;;;;;;5027607;28;58473;-68
2024/03/20 02:23:33;;;;;;;0.73;0.73;;;;;;;;;;5030065;28;60236;-68
2024/03/20 02:25:59;;;;;;;0.70;0.70;;;;;;;;;;5032314;28;59656;-68
2024/03/20 02:28:24;;;;;;;0.65;0.65;;;;;;;;;;5030675;28;58388;-68
2024/03/20 02:30:49;;;;;;;1.00;0.90;;;;;;;;;;5026603;28;58290;-68
2024/03/20 02:33:14;;;;;;;0.88;0.88;;;;;;;;;;5029734;28;58450;-69
2024/03/20 02:35:39;;;;;;;1.43;1.10;;;;;;;;;;5026606;28;59317;-69
2024/03/20 02:38:04;;;;;;;0.73;0.73;;;;;;;;;;5025808;28;58588;-68
2024/03/20 02:40:30;;;;;;;0.87;0.80;;;;;;;;;;5028480;28;58396;-68
2024/03/20 02:42:55;;;;;;;3.00;0.85;;;;;;;;;;5033286;28;59122;-68
2024/03/20 02:45:20;;;;;;;1.00;0.77;;;;;;;;;;5027589;28;58412;-68
2024/03/20 02:47:45;;;;;;;0.70;0.70;;;;;;;;;;5026100;28;58398;-68
2024/03/20 02:50:10;;;;;;;0.50;0.50;;;;;;;;;;5024352;28;61726;-67
2024/03/20 02:52:35;;;;;;;0.80;0.80;;;;;;;;;;5024266;28;58478;-68
2024/03/20 02:55:00;;;;;;;0.80;0.80;;;;;;;;;;5026191;28;59236;-66
2024/03/20 02:57:26;;;;;;;0.70;0.70;;;;;;;;;;5025564;28;59993;-66
2024/03/20 02:59:51;;;;;;;1.07;0.93;;;;;;;;;;5025575;28;58277;-68
2024/03/20 03:02:16;;;;;;;0.82;0.82;;;;;;;;;;5032604;28;59232;-67
2024/03/20 03:04:41;;;;;;;0.77;0.77;;;;;;;;;;5028215;28;59899;-66
2024/03/20 03:07:06;;;;;;;0.80;0.80;;;;;;;;;;5029284;28;58568;-67
2024/03/20 03:09:31;;;;;;;0.90;0.73;;;;;;;;;;5025997;28;58421;-66
2024/03/20 03:11:57;;;;;;;0.95;0.90;;;;;;;;;;5025900;28;58510;-66
2024/03/20 03:14:22;;;;;;;0.80;0.80;;;;;;;;;;5025676;28;58378;-66
2024/03/20 03:16:47;;;;;;;0.90;0.70;;;;;;;;;;5024025;28;58832;-66
2024/03/20 03:19:12;;;;;;;0.83;0.83;;;;;;;;;;5025448;28;58379;-66
2024/03/20 03:21:38;;;;;;;1.13;1.02;;;;;;;;;;5026106;28;60475;-68
2024/03/20 03:24:04;;;;;;;1.00;0.90;;;;;;;;;;5025267;28;58968;-66
2024/03/20 03:26:29;;;;;;;1.00;0.88;;;;;;;;;;5027538;28;58493;-66
2024/03/20 03:28:54;;;;;;;0.80;0.80;;;;;;;;;;5026821;28;58264;-66
2024/03/20 03:31:20;;;;;;;0.90;0.87;;;;;;;;;;5031484;28;59041;-68
2024/03/20 03:33:45;;;;;;;0.65;0.60;;;;;;;;;;5027393;28;59350;-66
2024/03/20 03:36:10;;;;;;;0.80;0.80;;;;;;;;;;5029136;28;58525;-66
2024/03/20 03:38:36;;;;;;;0.70;0.70;;;;;;;;;;5025978;28;58485;-66
2024/03/20 03:41:01;;;;;;;1.07;1.07;;;;;;;;;;5025490;28;59309;-66
2024/03/20 03:43:27;;;;;;;0.77;0.77;;;;;;;;;;5023908;28;58474;-66
2024/03/20 03:45:52;;;;;;;0.80;0.80;;;;;;;;;;5026901;28;58380;-66
2024/03/20 03:48:17;;;;;;;0.82;0.82;;;;;;;;;;5028213;28;58250;-66
2024/03/20 03:50:42;;;;;;;1.23;1.13;;;;;;;;;;5024675;28;59671;-67
2024/03/20 03:53:07;;;;;;;1.55;0.85;;;;;;;;;;5026029;28;58625;-66
2024/03/20 03:55:33;;;;;;;0.77;0.77;;;;;;;;;;5025267;28;58470;-66
2024/03/20 03:57:58;;;;;;;1.20;1.10;;;;;;;;;;5029832;28;58400;-66
2024/03/20 04:00:24;;;;;;;0.70;0.70;;;;;;;;;;5026271;28;58594;-66
2024/03/20 04:02:49;;;;;;;0.95;0.85;;;;;;;;;;5023885;28;59327;-66
2024/03/20 04:05:14;;;;;;;0.80;0.80;;;;;;;;;;5030266;28;58381;-67
2024/03/20 04:07:39;;;;;;;0.70;0.70;;;;;;;;;;5028620;28;59435;-68
2024/03/20 04:10:04;;;;;;;0.60;0.60;;;;;;;;;;5029473;28;59758;-68
2024/03/20 04:12:30;;;;;;;0.95;0.95;;;;;;;;;;5030254;28;58433;-68
2024/03/20 04:14:55;;;;;;;1.17;1.08;;;;;;;;;;5030713;28;58729;-68
2024/03/20 04:17:20;;;;;;;0.60;0.60;;;;;;;;;;5030229;28;58342;-68
2024/03/20 04:19:45;;;;;;;1.08;0.90;;;;;;;;;;5027592;28;58415;-68
2024/03/20 04:22:10;;;;;;;0.80;0.80;;;;;;;;;;5028443;28;59987;-68
2024/03/20 04:24:35;;;;;;;0.68;0.68;;;;;;;;;;5035014;28;58371;-68
2024/03/20 04:27:00;;;;;;;0.70;0.60;;;;;;;;;;5026649;28;58401;-68
2024/03/20 04:29:26;;;;;;;0.90;0.80;;;;;;;;;;5026690;28;59026;-67
2024/03/20 04:31:51;;;;;;;0.80;0.70;;;;;;;;;;5028636;28;58454;-68
2024/03/20 04:34:16;;;;;;;1.27;0.80;;;;;;;;;;5027387;28;60245;-67
2024/03/20 04:36:41;;;;;;;1.23;1.13;;;;;;;;;;5031293;28;58443;-68
2024/03/20 04:39:07;;;;;;;0.60;0.60;;;;;;;;;;5032186;28;59687;-68
2024/03/20 04:41:32;;;;;;;0.73;0.73;;;;;;;;;;5027646;28;60018;-68
2024/03/20 04:43:57;;;;;;;0.83;0.83;;;;;;;;;;5029217;28;58433;-68
2024/03/20 04:46:22;;;;;;;0.60;0.47;;;;;;;;;;5028279;28;59188;-68
2024/03/20 04:48:47;;;;;;;0.70;0.70;;;;;;;;;;5025454;28;60059;-68
2024/03/20 04:51:13;;;;;;;0.60;0.60;;;;;;;;;;5028377;28;58543;-68
2024/03/20 04:53:38;;;;;;;1.15;0.80;;;;;;;;;;5029451;28;58529;-68
2024/03/20 04:56:03;;;;;;;1.10;0.70;;;;;;;;;;5030761;28;60021;-68
2024/03/20 04:58:28;;;;;;;1.00;1.00;;;;;;;;;;5026464;28;59497;-68
2024/03/20 05:00:53;;;;;;;0.90;0.90;;;;;;;;;;5029322;28;59138;-68
2024/03/20 05:03:18;;;;;;;0.98;0.90;;;;;;;;;;5023811;28;58585;-68
2024/03/20 05:05:44;;;;;;;0.95;0.95;;;;;;;;;;5027548;28;59221;-68
2024/03/20 05:08:09;;;;;;;0.77;0.73;;;;;;;;;;5028153;28;58809;-68
2024/03/20 05:10:34;;;;;;;0.90;0.80;;;;;;;;;;5027001;28;58704;-68
2024/03/20 05:12:59;;;;;;;0.90;0.90;;;;;;;;;;5028347;28;59267;-68
2024/03/20 05:15:24;;;;;;;0.80;0.80;;;;;;;;;;5025743;28;58505;-68
2024/03/20 05:17:49;;;;;;;0.82;0.82;;;;;;;;;;5030365;28;58377;-68
2024/03/20 05:20:15;;;;;;;0.80;0.80;;;;;;;;;;5027951;28;58513;-67
2024/03/20 05:22:40;;;;;;;0.77;0.77;;;;;;;;;;5030042;28;58508;-67
2024/03/20 05:25:05;;;;;;;0.70;0.70;;;;;;;;;;5035278;28;58427;-66
2024/03/20 05:27:31;;;;;;;0.70;0.70;;;;;;;;;;5032086;28;58974;-66
2024/03/20 05:29:56;;;;;;;0.73;0.73;;;;;;;;;;5028318;28;58421;-66
2024/03/20 05:32:21;;;;;;;1.08;1.00;;;;;;;;;;5026827;28;60078;-66
2024/03/20 05:34:46;;;;;;;0.80;0.80;;;;;;;;;;5027043;28;58974;-66
2024/03/20 05:37:11;;;;;;;1.40;1.03;;;;;;;;;;5024554;28;58619;-66
2024/03/20 05:39:36;;;;;;;0.67;0.67;;;;;;;;;;5025970;28;59210;-66
2024/03/20 05:42:02;;;;;;;0.70;0.70;;;;;;;;;;5025387;28;58566;-66
2024/03/20 05:44:27;;;;;;;0.80;0.80;;;;;;;;;;5027395;28;59513;-66
2024/03/20 05:46:52;;;;;;;0.73;0.67;;;;;;;;;;5025504;28;60608;-67
2024/03/20 05:49:20;;;;;;;0.80;0.80;;;;;;;;;;5029631;28;58344;-66
2024/03/20 05:51:46;;;;;;;0.75;0.75;;;;;;;;;;5023639;28;59391;-67
2024/03/20 05:54:11;;;;;;;0.75;0.75;;;;;;;;;;5025290;28;58999;-67
2024/03/20 05:56:37;;;;;;;0.80;0.80;;;;;;;;;;5024421;28;59420;-73
2024/03/20 05:59:02;;;;;;;1.23;1.07;;;;;;;;;;5027008;28;60530;-75
2024/03/20 06:01:28;;;;;;;5.10;1.17;;;;;;;;;;5026797;28;59759;-74
2024/03/20 06:03:53;;;;;;;3.53;0.77;;;;;;;;;;5027328;28;58773;-73
2024/03/20 06:06:18;;;;;;;1.17;1.00;;;;;;;;;;5024486;28;59251;-73
2024/03/20 06:08:43;;;;;;;1.52;1.00;;;;;;;;;;5023467;28;58538;-73
2024/03/20 06:11:08;;;;;;;1.60;0.87;;;;;;;;;;5024196;28;59878;-74
2024/03/20 06:13:33;;;;;;;1.50;1.13;;;;;;;;;;5023425;28;58408;-74
2024/03/20 06:15:59;;;;;;;6.18;1.65;;;;;;;;;;5023458;28;57620;-73
2024/03/20 06:18:24;;;;;;;2.30;1.00;;;;;;;;;;5023449;28;59208;-76
2024/03/20 06:20:50;;;;;;;5.53;1.00;;;;;;;;;;5025957;28;58437;-74
